Chemroad Wing — 3EAB8 — position and weather

sailwx.info

Track history (hours):
 
Tides and Currents Weather Stations Pressure Air Temp Water Temp Dewpoint Dewpoint Depression Visibility Wind Speed Wind Dir Waves Ship Positions

Chemroad Wing

Last reported at 2016-Feb-04 00:22 UTC. Time now 2016-Feb-06 09:12 UTC.
Position N 31°15' E 121°56'.

Length 170 m; draft 8.1 m.

Type: Ship (hazmat cat B). MMSI: 357740000.

Date/timePositionNaut miles runAvg speedWind from/ knotsBaromVisibWave heightAir tempDewpointWater temp
2016-Feb-04 00:22N 31°15' E 121°56'1012.6
2016-Feb-03 23:33N 31°19' E 121°44'1110.8
2016-Feb-03 22:33N 31°24' E 121°33'7 7.0
2016-Feb-03 21:33N 31°28' E 121°27'7 6.7
2016-Feb-03 20:31N 31°32' E 121°20'7 7.2
2016-Feb-03 19:31N 31°38' E 121°15'8 7.6
2016-Feb-03 18:29N 31°43' E 121°08'7 7.2
2016-Feb-03 17:30N 31°47' E 121°01'7 7.7
2016-Feb-03 16:33N 31°51' E 120°54'8 8.4
2016-Feb-03 15:32N 31°59' E 120°50'8 7.9
2016-Feb-03 14:32N 31°60' E 120°41'1211.6
2016-Feb-03 13:30N 32°01' E 120°27'6 6.1
2016-Feb-03 12:32N 31°58' E 120°21'10 8.3
2016-Feb-03 11:19N 31°56' E 120°09'5 0.3
2016-Feb-02 14:33N 31°58' E 120°03'10 9.8
2016-Feb-02 13:30N 31°56' E 120°15'10 9.9
2016-Feb-02 12:27N 31°59' E 120°27'6 6.6
2016-Feb-02 11:31N 32°01' E 120°34'1010.1
2016-Feb-02 10:33N 32°01' E 120°45'1110.8
2016-Feb-02 09:33N 31°53' E 120°54'1212.1
2016-Feb-02 08:33N 31°45' E 121°05'1413.6
2016-Feb-02 07:33N 31°36' E 121°17'1212.0
2016-Feb-02 06:33N 31°28' E 121°27'8 7.7
2016-Feb-02 05:33N 31°24' E 121°35'1211.4
2016-Feb-02 04:31N 31°18' E 121°47'  
2016-Jan-30 09:12N 29°54' E 122°55'913.1
2016-Jan-30 08:32N 29°49' E 122°47'1312.7
2016-Jan-30 07:33N 29°41' E 122°36'1413.5
2016-Jan-30 06:31N 29°44' E 122°20'1010.7
2016-Jan-30 05:33N 29°51' E 122°12'1110.4
2016-Jan-30 04:32N 29°56' E 122°01'1111.2
2016-Jan-30 03:32N 29°59' E 121°48'2 0.1
2016-Jan-29 07:31N 29°58' E 121°47'6 6.2
2016-Jan-29 06:33N 29°58' E 121°54'9 9.1
2016-Jan-29 05:34N 29°55' E 122°04'1111.3
2016-Jan-29 04:33N 29°49' E 122°14'4 4.1
2016-Jan-29 03:34N 29°46' E 122°17'7 7.2
2016-Jan-29 02:34N 29°51' E 122°12'9 8.8
2016-Jan-29 01:30N 29°45' E 122°20'5 5.8
2016-Jan-29 00:33N 29°45' E 122°26'0 0.1
2016-Jan-28 23:32N 29°45' E 122°26'0 0.1
2016-Jan-28 22:31N 29°45' E 122°26'0 0.0
2016-Jan-28 21:30N 29°45' E 122°26'0 0.0
2016-Jan-28 20:33N 29°45' E 122°26'0 0.0
2016-Jan-28 19:32N 29°45' E 122°26'0 0.1
2016-Jan-28 18:33N 29°45' E 122°26'0 0.2
2016-Jan-28 17:33N 29°45' E 122°26'0 0.1
2016-Jan-28 16:33N 29°45' E 122°26'0 0.0
2016-Jan-28 15:34N 29°45' E 122°26'0 0.0
2016-Jan-28 14:33N 29°45' E 122°26'0 0.1
2016-Jan-28 13:30N 29°45' E 122°26'0 0.1
2016-Jan-28 12:33N 29°45' E 122°26'0 0.1
2016-Jan-28 11:32N 29°45' E 122°26'0 0.1
2016-Jan-28 10:31N 29°45' E 122°26'0 0.0
2016-Jan-28 09:33N 29°45' E 122°26'0 0.2
2016-Jan-28 08:31N 29°45' E 122°26'0 0.1
2016-Jan-28 07:32N 29°45' E 122°26'0 0.1
2016-Jan-28 06:32N 29°45' E 122°26'0 0.1
2016-Jan-28 05:33N 29°45' E 122°26'0 0.1
2016-Jan-28 04:32N 29°45' E 122°26'0 0.1
2016-Jan-28 03:32N 29°45' E 122°26'3 3.4
2016-Jan-28 02:31N 29°43' E 122°28'  
2016-Jan-25 06:29N 22°47' E 120°05'1111.8
2016-Jan-25 05:33N 22°37' E 119°59'  
Track history (hours):
 
Tides and Currents Weather Stations Pressure Air Temp Water Temp Dewpoint Dewpoint Depression Visibility Wind Speed Wind Dir Waves Ship Positions

Chemroad Wing

Last reported at 2016-Feb-04 00:22 UTC. Time now 2016-Feb-06 09:12 UTC.
Position N 31°15' E 121°56'.

Length 170 m; draft 8.1 m.

Type: Ship (hazmat cat B). MMSI: 357740000.

Date/timePositionNaut miles runAvg speedWind from/ knotsBaromVisibWave heightAir tempDewpointWater temp
2016-Feb-04 00:22N 31°15' E 121°56'1012.6
2016-Feb-03 23:33N 31°19' E 121°44'1110.8
2016-Feb-03 22:33N 31°24' E 121°33'7 7.0
2016-Feb-03 21:33N 31°28' E 121°27'7 6.7
2016-Feb-03 20:31N 31°32' E 121°20'7 7.2
2016-Feb-03 19:31N 31°38' E 121°15'8 7.6
2016-Feb-03 18:29N 31°43' E 121°08'7 7.2
2016-Feb-03 17:30N 31°47' E 121°01'7 7.7
2016-Feb-03 16:33N 31°51' E 120°54'8 8.4
2016-Feb-03 15:32N 31°59' E 120°50'8 7.9
2016-Feb-03 14:32N 31°60' E 120°41'1211.6
2016-Feb-03 13:30N 32°01' E 120°27'6 6.1
2016-Feb-03 12:32N 31°58' E 120°21'10 8.3
2016-Feb-03 11:19N 31°56' E 120°09'5 0.3
2016-Feb-02 14:33N 31°58' E 120°03'10 9.8
2016-Feb-02 13:30N 31°56' E 120°15'10 9.9
2016-Feb-02 12:27N 31°59' E 120°27'6 6.6
2016-Feb-02 11:31N 32°01' E 120°34'1010.1
2016-Feb-02 10:33N 32°01' E 120°45'1110.8
2016-Feb-02 09:33N 31°53' E 120°54'1212.1
2016-Feb-02 08:33N 31°45' E 121°05'1413.6
2016-Feb-02 07:33N 31°36' E 121°17'1212.0
2016-Feb-02 06:33N 31°28' E 121°27'8 7.7
2016-Feb-02 05:33N 31°24' E 121°35'1211.4
2016-Feb-02 04:31N 31°18' E 121°47'  
2016-Jan-30 09:12N 29°54' E 122°55'913.1
2016-Jan-30 08:32N 29°49' E 122°47'1312.7
2016-Jan-30 07:33N 29°41' E 122°36'1413.5
2016-Jan-30 06:31N 29°44' E 122°20'1010.7
2016-Jan-30 05:33N 29°51' E 122°12'1110.4
2016-Jan-30 04:32N 29°56' E 122°01'1111.2
2016-Jan-30 03:32N 29°59' E 121°48'2 0.1
2016-Jan-29 07:31N 29°58' E 121°47'6 6.2
2016-Jan-29 06:33N 29°58' E 121°54'9 9.1
2016-Jan-29 05:34N 29°55' E 122°04'1111.3
2016-Jan-29 04:33N 29°49' E 122°14'4 4.1
2016-Jan-29 03:34N 29°46' E 122°17'7 7.2
2016-Jan-29 02:34N 29°51' E 122°12'9 8.8
2016-Jan-29 01:30N 29°45' E 122°20'5 5.8
2016-Jan-29 00:33N 29°45' E 122°26'0 0.1
2016-Jan-28 23:32N 29°45' E 122°26'0 0.1
2016-Jan-28 22:31N 29°45' E 122°26'0 0.0
2016-Jan-28 21:30N 29°45' E 122°26'0 0.0
2016-Jan-28 20:33N 29°45' E 122°26'0 0.0
2016-Jan-28 19:32N 29°45' E 122°26'0 0.1
2016-Jan-28 18:33N 29°45' E 122°26'0 0.2
2016-Jan-28 17:33N 29°45' E 122°26'0 0.1
2016-Jan-28 16:33N 29°45' E 122°26'0 0.0
2016-Jan-28 15:34N 29°45' E 122°26'0 0.0
2016-Jan-28 14:33N 29°45' E 122°26'0 0.1
2016-Jan-28 13:30N 29°45' E 122°26'0 0.1
2016-Jan-28 12:33N 29°45' E 122°26'0 0.1
2016-Jan-28 11:32N 29°45' E 122°26'0 0.1
2016-Jan-28 10:31N 29°45' E 122°26'0 0.0
2016-Jan-28 09:33N 29°45' E 122°26'0 0.2
2016-Jan-28 08:31N 29°45' E 122°26'0 0.1
2016-Jan-28 07:32N 29°45' E 122°26'0 0.1
2016-Jan-28 06:32N 29°45' E 122°26'0 0.1
2016-Jan-28 05:33N 29°45' E 122°26'0 0.1
2016-Jan-28 04:32N 29°45' E 122°26'0 0.1
2016-Jan-28 03:32N 29°45' E 122°26'3 3.4
2016-Jan-28 02:31N 29°43' E 122°28'  
2016-Jan-25 06:29N 22°47' E 120°05'1111.8
2016-Jan-25 05:33N 22°37' E 119°59'  

Dump ship's entire track history